Terminal Aerodrome Forecast
Issued by NWS Bismarck, ND

Home | Current Version | Previous Version | Text Only | Print | Product List | Glossary Off
Versions: 1 2 3 4 5 6 7 8 9 10 11 12 13 14 15 16 17

000
FTUS43 KBIS 181136
TAFISN
TAF
KISN 181136Z 1812/1912 04012KT 2SM -SN OVC015
      TEMPO 1812/1814 3/4SM -SN BR OVC015
     FM181500 01010KT 3SM BR VCSH BKN020
     FM181700 01011KT P6SM BKN035
     FM190800 VRB03KT P6SM BKN035
     FM191100 02004KT P6SM BKN060=

USA.gov is the U.S. government's official web portal to all federal, state and local government web resources and services.